Union City, Connecticut
Current Conditions -  °F | °C
As of 12:52 PM on Thursday 29 Jan 2015 (Local Time) from KOXC Reporting Station
Scattered Clouds Scattered Clouds  
Wind Chill: 23°   Ceiling: Unl
Heat Index: 30°   Visibility: 10mi
Dew Point:   Wind: 7mph
Humidity: 29%   Direction: 180°S
Pressure: 30.19"   Gusts: NA
Location:  41.489°N, 73.0518°W
Report Text: KOXC 291752Z 18006KT 10SM SCT250 M01/M17 A3019
Loading
Personal Weather Stations






























Interactive Weather Map New forecast layout! Learn more

10-Day Weather Forecast

Advertisements
Track Severe Weather on mobile